Time;durP1;ratioP1;P1;durP2;ratioP2;P2;SDS_P1;SDS_P2;PMS_P1;PMS_P2;Temp;Humidity;BMP_temperature;BMP_pressure;BME280_temperature;BME280_humidity;BME280_pressure;Samples;Min_cycle;Max_cycle;Signal;HPM_P1;HPM_P2
2023/03/29 00:03:01;;;;;;;;;;;;;;;;;;5072174;28;19923;-70
2023/03/29 00:06:04;;;;;;;;;;;;;;;;;;5072451;28;19931;-70
2023/03/29 00:09:08;;;;;;;;;;;;;;;;;;5071362;28;19920;-70
2023/03/29 00:12:11;;;;;;;;;;;;;;;;;;5072238;28;19922;-70
2023/03/29 00:15:14;;;;;;;;;;;;;;;;;;5072182;28;19920;-70
2023/03/29 00:18:17;;;;;;;;;;;;;;;;;;5072090;28;20339;-70
2023/03/29 00:21:20;;;;;;;;;;;;;;;;;;5072235;28;19966;-70
2023/03/29 00:24:22;;;;;;;;;;;;;;;;;;5072030;28;20318;-70
2023/03/29 00:27:25;;;;;;;;;;;;;;;;;;5071882;28;20299;-70
2023/03/29 00:30:28;;;;;;;;;;;;;;;;;;5072088;28;19971;-70
2023/03/29 00:33:31;;;;;;;;;;;;;;;;;;5074264;28;19919;-70
2023/03/29 00:36:34;;;;;;;;;;;;;;;;;;5075907;28;20359;-70
2023/03/29 00:39:40;;;;;;;;;;;;;;;;;;5074740;28;20442;-70
2023/03/29 00:42:44;;;;;;;;;;;;;;;;;;5074504;28;19924;-70
2023/03/29 00:45:47;;;;;;;;;;;;;;;;;;5063007;28;19919;-70
2023/03/29 00:48:49;;;;;;;;;;;;;;;;;;5074632;28;20360;-70
2023/03/29 00:51:52;;;;;;;;;;;;;;;;;;5074579;28;19965;-70
2023/03/29 00:54:55;;;;;;;;;;;;;;;;;;5074768;28;19928;-70
2023/03/29 00:57:59;;;;;;;;;;;;;;;;;;5075191;28;19919;-70
2023/03/29 01:01:02;;;;;;;;;;;;;;;;;;5075038;28;20281;-70
2023/03/29 01:04:05;;;;;;;;;;;;;;;;;;5075102;28;19966;-69
2023/03/29 01:07:12;;;;;;;;;;;;;;;;;;5074155;28;20034;-70
2023/03/29 01:10:15;;;;;;;;;;;;;;;;;;5074950;28;19919;-70
2023/03/29 01:13:18;;;;;;;;;;;;;;;;;;5074188;28;19920;-70
2023/03/29 01:16:21;;;;;;;;;;;;;;;;;;5074137;28;19924;-70
2023/03/29 01:19:25;;;;;;;;;;;;;;;;;;5073959;28;19974;-70
2023/03/29 01:22:28;;;;;;;;;;;;;;;;;;5073699;28;19959;-70
2023/03/29 01:25:31;;;;;;;;;;;;;;;;;;5073831;28;19918;-70
2023/03/29 01:28:34;;;;;;;;;;;;;;;;;;5073808;28;20331;-70
2023/03/29 01:31:37;;;;;;;;;;;;;;;;;;5073754;28;20053;-70
2023/03/29 01:34:40;;;;;;;;;;;;;;;;;;5074643;28;20411;-70
2023/03/29 01:37:44;;;;;;;;;;;;;;;;;;5074445;28;19935;-70
2023/03/29 01:40:47;;;;;;;;;;;;;;;;;;5074489;28;19920;-70
2023/03/29 01:43:51;;;;;;;;;;;;;;;;;;5073679;28;19927;-70
2023/03/29 01:46:53;;;;;;;;;;;;;;;;;;5074618;28;19970;-70
2023/03/29 01:49:57;;;;;;;;;;;;;;;;;;5074178;28;19931;-70
2023/03/29 01:53:00;;;;;;;;;;;;;;;;;;5074110;28;19919;-69
2023/03/29 01:56:03;;;;;;;;;;;;;;;;;;5073235;28;19977;-70
2023/03/29 01:59:07;;;;;;;;;;;;;;;;;;5073152;28;20001;-70
2023/03/29 02:02:10;;;;;;;;;;;;;;;;;;5074094;28;19969;-70
2023/03/29 02:05:13;;;;;;;;;;;;;;;;;;5073050;28;19970;-70
2023/03/29 02:08:16;;;;;;;;;;;;;;;;;;5073911;28;20015;-70
2023/03/29 02:11:20;;;;;;;;;;;;;;;;;;5072878;28;19928;-70
2023/03/29 02:14:24;;;;;;;;;;;;;;;;;;5073999;28;19982;-70
2023/03/29 02:17:27;;;;;;;;;;;;;;;;;;5073624;28;20047;-70
2023/03/29 02:20:30;;;;;;;;;;;;;;;;;;5072837;28;20419;-70
2023/03/29 02:23:33;;;;;;;;;;;;;;;;;;5073568;28;19966;-70
2023/03/29 02:26:36;;;;;;;;;;;;;;;;;;5072599;28;20414;-70
2023/03/29 02:29:39;;;;;;;;;;;;;;;;;;5072561;28;19930;-70
2023/03/29 02:32:42;;;;;;;;;;;;;;;;;;5072518;28;19962;-70
2023/03/29 02:35:45;;;;;;;;;;;;;;;;;;5072511;28;19935;-70
2023/03/29 02:38:48;;;;;;;;;;;;;;;;;;5072360;28;19923;-70
2023/03/29 02:41:51;;;;;;;;;;;;;;;;;;5072529;28;19928;-70
2023/03/29 02:44:54;;;;;;;;;;;;;;;;;;5061153;28;19920;-69
2023/03/29 02:47:56;;;;;;;;;;;;;;;;;;5072200;28;19974;-70
2023/03/29 02:51:00;;;;;;;;;;;;;;;;;;5072200;28;19927;-70
2023/03/29 02:54:02;;;;;;;;;;;;;;;;;;5071990;28;20020;-70
2023/03/29 02:57:05;;;;;;;;;;;;;;;;;;5071983;28;19962;-70
2023/03/29 03:00:09;;;;;;;;;;;;;;;;;;5072932;28;20288;-70
2023/03/29 03:03:12;;;;;;;;;;;;;;;;;;5071987;28;20399;-70
2023/03/29 03:06:14;;;;;;;;;;;;;;;;;;5072121;28;20097;-70
2023/03/29 03:09:17;;;;;;;;;;;;;;;;;;5072037;28;19985;-70
2023/03/29 03:12:22;;;;;;;;;;;;;;;;;;5072873;28;20395;-69
2023/03/29 03:15:26;;;;;;;;;;;;;;;;;;5071454;28;19947;-69
2023/03/29 03:18:28;;;;;;;;;;;;;;;;;;5071886;28;19958;-70
2023/03/29 03:21:32;;;;;;;;;;;;;;;;;;5072589;28;20280;-70
2023/03/29 03:24:36;;;;;;;;;;;;;;;;;;5071791;28;19966;-70
2023/03/29 03:27:40;;;;;;;;;;;;;;;;;;5071713;28;19938;-70
2023/03/29 03:30:43;;;;;;;;;;;;;;;;;;5072953;28;19918;-70
2023/03/29 03:34:05;;;;;;;;;;;;;;;;;;5072873;28;19934;-70
2023/03/29 03:37:14;;;;;;;;;;;;;;;;;;5071889;28;20445;-70
2023/03/29 03:40:17;;;;;;;;;;;;;;;;;;5071655;28;19920;-70
2023/03/29 03:43:20;;;;;;;;;;;;;;;;;;5071519;28;19923;-70
2023/03/29 03:46:24;;;;;;;;;;;;;;;;;;5071600;28;19979;-69
2023/03/29 03:49:27;;;;;;;;;;;;;;;;;;5072493;28;20312;-69
2023/03/29 03:52:30;;;;;;;;;;;;;;;;;;5071524;28;19935;-69
2023/03/29 03:55:33;;;;;;;;;;;;;;;;;;5072266;28;20016;-70
2023/03/29 03:58:46;;;;;;;;;;;;;;;;;;5071361;28;19920;-71
2023/03/29 04:01:49;;;;;;;;;;;;;;;;;;5071364;28;20385;-70
2023/03/29 04:04:55;;;;;;;;;;;;;;;;;;5071457;28;20012;-70
2023/03/29 04:08:06;;;;;;;;;;;;;;;;;;5074346;28;19920;-69
2023/03/29 04:11:32;;;;;;;;;;;;;;;;;;5076015;28;20338;-70
2023/03/29 04:14:35;;;;;;;;;;;;;;;;;;5073908;28;19967;-70
2023/03/29 04:17:53;;;;;;;;;;;;;;;;;;5075887;28;20464;-72
2023/03/29 04:21:18;;;;;;;;;;;;;;;;;;5075801;28;19966;-72
2023/03/29 04:24:20;;;;;;;;;;;;;;;;;;5075110;28;19920;-72
2023/03/29 04:27:42;;;;;;;;;;;;;;;;;;5075256;28;19954;-72
2023/03/29 04:30:53;;;;;;;;;;;;;;;;;;5064642;28;20006;-71
2023/03/29 04:34:20;;;;;;;;;;;;;;;;;;5075974;28;19970;-72
2023/03/29 04:37:24;;;;;;;;;;;;;;;;;;5074759;28;19978;-73
2023/03/29 04:40:29;;;;;;;;;;;;;;;;;;5075601;28;19939;-73
2023/03/29 04:43:46;;;;;;;;;;;;;;;;;;5074326;28;19939;-72
2023/03/29 04:47:11;;;;;;;;;;;;;;;;;;5075000;28;19927;-71
2023/03/29 04:50:31;;;;;;;;;;;;;;;;;;5075451;28;19923;-70
2023/03/29 04:53:35;;;;;;;;;;;;;;;;;;5073753;28;19969;-72
2023/03/29 04:56:38;;;;;;;;;;;;;;;;;;5074440;28;19953;-72
2023/03/29 05:00:13;;;;;;;;;;;;;;;;;;5074374;28;20366;-71
2023/03/29 05:03:34;;;;;;;;;;;;;;;;;;5074505;28;19963;-71
2023/03/29 05:06:56;;;;;;;;;;;;;;;;;;5074124;28;19966;-71
2023/03/29 05:09:59;;;;;;;;;;;;;;;;;;5075356;28;19970;-72
2023/03/29 05:13:03;;;;;;;;;;;;;;;;;;5075264;28;19978;-71
2023/03/29 05:16:07;;;;;;;;;;;;;;;;;;5073593;28;19966;-72
2023/03/29 05:19:11;;;;;;;;;;;;;;;;;;5072981;28;19966;-76
2023/03/29 05:22:19;;;;;;;;;;;;;;;;;;5073892;28;19962;-75
2023/03/29 05:25:22;;;;;;;;;;;;;;;;;;5074055;28;19982;-74
2023/03/29 05:28:34;;;;;;;;;;;;;;;;;;5074058;28;19920;-75
2023/03/29 05:31:41;;;;;;;;;;;;;;;;;;5073997;28;20058;-72
2023/03/29 05:34:47;;;;;;;;;;;;;;;;;;5073899;28;19924;-75
2023/03/29 05:37:51;;;;;;;;;;;;;;;;;;5073925;28;19975;-74
2023/03/29 05:40:55;;;;;;;;;;;;;;;;;;5073806;28;19966;-73
2023/03/29 05:44:17;;;;;;;;;;;;;;;;;;5073934;28;19923;-74
2023/03/29 05:47:26;;;;;;;;;;;;;;;;;;5073052;28;19958;-74
2023/03/29 05:50:30;;;;;;;;;;;;;;;;;;5072835;28;20029;-75
2023/03/29 05:53:34;;;;;;;;;;;;;;;;;;5072863;28;19923;-74
2023/03/29 05:56:36;;;;;;;;;;;;;;;;;;5073118;28;19919;-76
2023/03/29 05:59:41;;;;;;;;;;;;;;;;;;5072190;28;20375;-77
2023/03/29 06:02:45;;;;;;;;;;;;;;;;;;5072470;28;19924;-76
2023/03/29 06:05:48;;;;;;;;;;;;;;;;;;5072929;28;20008;-74
2023/03/29 06:08:51;;;;;;;;;;;;;;;;;;5072707;28;19919;-72
2023/03/29 06:12:01;;;;;;;;;;;;;;;;;;5072844;28;19920;-73
2023/03/29 06:15:10;;;;;;;;;;;;;;;;;;5072745;28;19958;-73
2023/03/29 06:18:19;;;;;;;;;;;;;;;;;;5072768;28;20068;-73
2023/03/29 06:21:27;;;;;;;;;;;;;;;;;;5072831;28;19920;-73
2023/03/29 06:24:31;;;;;;;;;;;;;;;;;;5072609;28;19935;-74
2023/03/29 06:27:41;;;;;;;;;;;;;;;;;;5072534;28;19919;-73
2023/03/29 06:30:44;;;;;;;;;;;;;;;;;;5072168;28;19965;-70
2023/03/29 06:33:48;;;;;;;;;;;;;;;;;;5072463;28;19982;-72
2023/03/29 06:37:14;;;;;;;;;;;;;;;;;;5068623;28;19939;-72
2023/03/29 06:40:18;;;;;;;;;;;;;;;;;;5072368;28;19919;-73
2023/03/29 06:43:21;;;;;;;;;;;;;;;;;;5073007;28;19971;-72
2023/03/29 06:46:41;;;;;;;;;;;;;;;;;;5072482;28;19981;-73
2023/03/29 06:49:44;;;;;;;;;;;;;;;;;;5072356;28;19923;-72
2023/03/29 06:53:03;;;;;;;;;;;;;;;;;;5072067;28;19970;-71
2023/03/29 06:56:08;;;;;;;;;;;;;;;;;;5072099;28;20396;-73
2023/03/29 06:59:18;;;;;;;;;;;;;;;;;;5072354;28;19919;-71
2023/03/29 07:02:44;;;;;;;;;;;;;;;;;;5072827;28;20430;-71
2023/03/29 07:05:49;;;;;;;;;;;;;;;;;;5072774;28;20382;-71
2023/03/29 07:08:54;;;;;;;;;;;;;;;;;;5071941;28;20276;-71
2023/03/29 07:12:12;;;;;;;;;;;;;;;;;;5072173;28;20038;-71
2023/03/29 07:15:15;;;;;;;;;;;;;;;;;;5072728;28;19978;-71
2023/03/29 07:18:40;;;;;;;;;;;;;;;;;;5067091;28;19966;-71
2023/03/29 07:21:43;;;;;;;;;;;;;;;;;;5071707;28;19928;-71
2023/03/29 07:24:48;;;;;;;;;;;;;;;;;;5072144;28;19981;-71
2023/03/29 07:27:53;;;;;;;;;;;;;;;;;;5071951;28;20276;-71
2023/03/29 07:30:56;;;;;;;;;;;;;;;;;;5072535;28;19920;-71
2023/03/29 07:33:59;;;;;;;;;;;;;;;;;;5071652;28;20009;-71
2023/03/29 07:37:02;;;;;;;;;;;;;;;;;;5071612;28;19971;-71
2023/03/29 07:40:08;;;;;;;;;;;;;;;;;;5072473;28;19919;-71
2023/03/29 07:43:26;;;;;;;;;;;;;;;;;;5074136;28;20395;-71
2023/03/29 07:46:29;;;;;;;;;;;;;;;;;;5075757;28;19973;-71
2023/03/29 07:49:32;;;;;;;;;;;;;;;;;;5075650;28;19919;-72
2023/03/29 07:52:37;;;;;;;;;;;;;;;;;;5075938;28;19919;-71
2023/03/29 07:55:46;;;;;;;;;;;;;;;;;;5075653;28;19997;-72
2023/03/29 07:59:07;;;;;;;;;;;;;;;;;;5076365;28;19919;-71
2023/03/29 08:02:10;;;;;;;;;;;;;;;;;;5075432;28;20228;-71
2023/03/29 08:05:16;;;;;;;;;;;;;;;;;;5076201;28;20316;-71
2023/03/29 08:08:25;;;;;;;;;;;;;;;;;;5075688;28;19919;-71
2023/03/29 08:11:32;;;;;;;;;;;;;;;;;;5075198;28;19920;-71
2023/03/29 08:14:38;;;;;;;;;;;;;;;;;;5075158;28;19919;-71
2023/03/29 08:18:06;;;;;;;;;;;;;;;;;;5075029;28;20335;-71
2023/03/29 08:21:09;;;;;;;;;;;;;;;;;;5075023;28;19990;-71
2023/03/29 08:24:13;;;;;;;;;;;;;;;;;;5074919;28;19941;-71
2023/03/29 08:27:34;;;;;;;;;;;;;;;;;;5075107;28;19958;-71
2023/03/29 08:30:38;;;;;;;;;;;;;;;;;;5074763;28;19927;-72
2023/03/29 08:33:52;;;;;;;;;;;;;;;;;;5075064;28;19924;-71
2023/03/29 08:37:18;;;;;;;;;;;;;;;;;;5075023;28;20004;-72
2023/03/29 08:40:23;;;;;;;;;;;;;;;;;;5074738;28;19979;-71
2023/03/29 08:43:26;;;;;;;;;;;;;;;;;;5075390;28;20288;-71
2023/03/29 08:46:55;;;;;;;;;;;;;;;;;;5075438;28;19920;-71
2023/03/29 08:50:03;;;;;;;;;;;;;;;;;;5074576;28;20090;-71
2023/03/29 08:53:16;;;;;;;;;;;;;;;;;;5073900;28;19998;-72
2023/03/29 08:56:37;;;;;;;;;;;;;;;;;;5074453;28;20284;-72
2023/03/29 08:59:54;;;;;;;;;;;;;;;;;;5074313;28;19923;-71
2023/03/29 09:03:01;;;;;;;;;;;;;;;;;;5074186;28;19970;-71
2023/03/29 09:06:04;;;;;;;;;;;;;;;;;;5074199;28;20423;-71
2023/03/29 09:09:09;;;;;;;;;;;;;;;;;;5074095;28;19962;-71
2023/03/29 09:12:11;;;;;;;;;;;;;;;;;;5074445;28;19958;-71
2023/03/29 09:15:18;;;;;;;;;;;;;;;;;;5074002;28;20374;-71
2023/03/29 09:18:29;;;;;;;;;;;;;;;;;;5073996;28;20395;-71
2023/03/29 09:21:32;;;;;;;;;;;;;;;;;;5073825;28;19983;-71
2023/03/29 09:24:36;;;;;;;;;;;;;;;;;;5073872;28;19920;-71
2023/03/29 09:27:44;;;;;;;;;;;;;;;;;;5073977;28;20284;-71
2023/03/29 09:30:55;;;;;;;;;;;;;;;;;;5073759;28;19927;-71
2023/03/29 09:33:58;;;;;;;;;;;;;;;;;;5074545;28;20327;-71
2023/03/29 09:37:07;;;;;;;;;;;;;;;;;;5073568;28;19958;-71
2023/03/29 09:40:10;;;;;;;;;;;;;;;;;;5073544;28;20441;-71
2023/03/29 09:43:39;;;;;;;;;;;;;;;;;;5074280;28;19924;-71
2023/03/29 09:46:47;;;;;;;;;;;;;;;;;;5073401;28;19966;-71
2023/03/29 09:49:50;;;;;;;;;;;;;;;;;;5073396;28;19938;-71
2023/03/29 09:52:53;;;;;;;;;;;;;;;;;;5074030;28;19938;-72
2023/03/29 09:55:58;;;;;;;;;;;;;;;;;;5073142;28;20387;-73
2023/03/29 09:59:09;;;;;;;;;;;;;;;;;;5073134;28;19969;-72
2023/03/29 10:02:12;;;;;;;;;;;;;;;;;;5073081;28;19943;-71
2023/03/29 10:05:15;;;;;;;;;;;;;;;;;;5072199;28;20399;-72
2023/03/29 10:08:19;;;;;;;;;;;;;;;;;;5072838;28;19962;-74
2023/03/29 10:11:22;;;;;;;;;;;;;;;;;;5072797;28;20287;-73
2023/03/29 10:14:25;;;;;;;;;;;;;;;;;;5073675;28;20331;-79
2023/03/29 10:17:31;;;;;;;;;;;;;;;;;;5073270;28;19920;-82
2023/03/29 10:20:35;;;;;;;;;;;;;;;;;;5073513;28;19919;-74
2023/03/29 10:23:38;;;;;;;;;;;;;;;;;;5073472;28;19923;-75
2023/03/29 10:26:41;;;;;;;;;;;;;;;;;;5073570;28;19966;-73
2023/03/29 10:29:44;;;;;;;;;;;;;;;;;;5073267;28;19923;-73
2023/03/29 10:32:50;;;;;;;;;;;;;;;;;;5072900;28;20038;-75
2023/03/29 10:35:54;;;;;;;;;;;;;;;;;;5072570;28;19926;-74
2023/03/29 10:38:57;;;;;;;;;;;;;;;;;;5073306;28;19994;-73
2023/03/29 10:41:59;;;;;;;;;;;;;;;;;;5073087;28;19943;-74
2023/03/29 10:45:03;;;;;;;;;;;;;;;;;;5073448;28;19927;-74
2023/03/29 10:48:08;;;;;;;;;;;;;;;;;;5073151;28;19919;-74
2023/03/29 10:51:12;;;;;;;;;;;;;;;;;;5072989;28;19966;-75
2023/03/29 10:54:16;;;;;;;;;;;;;;;;;;5072986;28;19927;-72
2023/03/29 10:57:18;;;;;;;;;;;;;;;;;;5073249;28;19982;-73
2023/03/29 11:00:21;;;;;;;;;;;;;;;;;;5072875;28;20450;-74
2023/03/29 11:03:25;;;;;;;;;;;;;;;;;;5072919;28;19999;-75
2023/03/29 11:06:28;;;;;;;;;;;;;;;;;;5072812;28;19935;-73
2023/03/29 11:09:31;;;;;;;;;;;;;;;;;;5072923;28;20519;-74
2023/03/29 11:12:34;;;;;;;;;;;;;;;;;;5072771;28;20415;-74
2023/03/29 11:15:37;;;;;;;;;;;;;;;;;;5072831;28;19957;-74
2023/03/29 11:18:40;;;;;;;;;;;;;;;;;;5072641;28;19920;-73
2023/03/29 11:21:43;;;;;;;;;;;;;;;;;;5072858;28;20011;-73
2023/03/29 11:24:46;;;;;;;;;;;;;;;;;;5072601;28;19919;-73
2023/03/29 11:27:49;;;;;;;;;;;;;;;;;;5072744;28;19951;-73
2023/03/29 11:30:52;;;;;;;;;;;;;;;;;;5072984;28;19923;-73
2023/03/29 11:33:55;;;;;;;;;;;;;;;;;;5072566;28;19919;-72
2023/03/29 11:36:59;;;;;;;;;;;;;;;;;;5072517;28;19927;-73
2023/03/29 11:40:04;;;;;;;;;;;;;;;;;;5072771;28;19919;-73
2023/03/29 11:43:14;;;;;;;;;;;;;;;;;;5072461;28;19927;-73
2023/03/29 11:46:17;;;;;;;;;;;;;;;;;;5072419;28;19919;-73
2023/03/29 11:49:20;;;;;;;;;;;;;;;;;;5072332;28;19924;-73
2023/03/29 11:52:25;;;;;;;;;;;;;;;;;;5072378;28;20380;-72
2023/03/29 11:55:29;;;;;;;;;;;;;;;;;;5072189;28;20355;-73
2023/03/29 11:58:32;;;;;;;;;;;;;;;;;;5072351;28;19966;-73
2023/03/29 12:01:36;;;;;;;;;;;;;;;;;;5072291;28;19939;-74
2023/03/29 12:04:40;;;;;;;;;;;;;;;;;;5072385;28;19958;-74
2023/03/29 12:07:43;;;;;;;;;;;;;;;;;;5072353;28;20518;-73
2023/03/29 12:10:47;;;;;;;;;;;;;;;;;;5071277;28;19919;-74
2023/03/29 12:13:51;;;;;;;;;;;;;;;;;;5072246;28;20300;-75
2023/03/29 12:16:59;;;;;;;;;;;;;;;;;;5072401;28;19919;-75
2023/03/29 12:20:03;;;;;;;;;;;;;;;;;;5072098;28;19919;-74
2023/03/29 12:23:06;;;;;;;;;;;;;;;;;;5070775;28;19923;-74
2023/03/29 12:26:09;;;;;;;;;;;;;;;;;;5071533;28;19919;-77
2023/03/29 12:29:13;;;;;;;;;;;;;;;;;;5073180;28;20015;-76
2023/03/29 12:32:20;;;;;;;;;;;;;;;;;;5076221;28;19936;-74
2023/03/29 12:35:43;;;;;;;;;;;;;;;;;;5070149;28;20415;-76
2023/03/29 12:39:05;;;;;;;;;;;;;;;;;;5075746;28;19920;-76
2023/03/29 12:42:27;;;;;;;;;;;;;;;;;;5075616;28;19969;-76
2023/03/29 12:45:55;;;;;;;;;;;;;;;;;;5074651;28;19935;-73
2023/03/29 12:48:58;;;;;;;;;;;;;;;;;;5075497;28;19919;-74
2023/03/29 12:52:01;;;;;;;;;;;;;;;;;;5075720;28;19967;-73
2023/03/29 12:55:04;;;;;;;;;;;;;;;;;;5075144;28;19970;-73
2023/03/29 12:58:07;;;;;;;;;;;;;;;;;;5074461;28;19919;-73
2023/03/29 13:01:10;;;;;;;;;;;;;;;;;;5075305;28;19930;-75
2023/03/29 13:04:13;;;;;;;;;;;;;;;;;;5075430;28;20023;-74
2023/03/29 13:07:16;;;;;;;;;;;;;;;;;;5075179;28;20008;-74
2023/03/29 13:10:19;;;;;;;;;;;;;;;;;;5075359;28;19967;-75
2023/03/29 13:13:22;;;;;;;;;;;;;;;;;;5074502;28;19954;-75
2023/03/29 13:16:25;;;;;;;;;;;;;;;;;;5074822;28;20288;-76
2023/03/29 13:19:31;;;;;;;;;;;;;;;;;;5074947;28;20008;-76
2023/03/29 13:22:34;;;;;;;;;;;;;;;;;;5074767;28;20464;-77
2023/03/29 13:25:40;;;;;;;;;;;;;;;;;;5074027;28;20399;-79
2023/03/29 13:28:46;;;;;;;;;;;;;;;;;;5074389;28;19920;-79
2023/03/29 13:31:50;;;;;;;;;;;;;;;;;;5084517;28;19919;-79
2023/03/29 13:34:53;;;;;;;;;;;;;;;;;;5074766;28;19952;-78
2023/03/29 13:37:56;;;;;;;;;;;;;;;;;;5074883;28;20391;-74
2023/03/29 13:40:59;;;;;;;;;;;;;;;;;;5073497;28;19919;-74
2023/03/29 13:44:05;;;;;;;;;;;;;;;;;;5074537;28;19923;-75
2023/03/29 13:47:11;;;;;;;;;;;;;;;;;;5073076;28;19923;-75
2023/03/29 13:50:15;;;;;;;;;;;;;;;;;;5074077;28;20372;-75
2023/03/29 13:53:19;;;;;;;;;;;;;;;;;;5074159;28;19930;-76
2023/03/29 13:56:23;;;;;;;;;;;;;;;;;;5073025;28;19945;-73
2023/03/29 13:59:30;;;;;;;;;;;;;;;;;;5074213;28;20307;-75
2023/03/29 14:02:34;;;;;;;;;;;;;;;;;;5074123;28;20340;-75
2023/03/29 14:05:36;;;;;;;;;;;;;;;;;;5074235;28;19958;-73
2023/03/29 14:08:42;;;;;;;;;;;;;;;;;;5073244;28;20340;-76
2023/03/29 14:11:45;;;;;;;;;;;;;;;;;;5073981;28;20387;-76
2023/03/29 14:14:48;;;;;;;;;;;;;;;;;;5074079;28;20421;-76
2023/03/29 14:17:51;;;;;;;;;;;;;;;;;;5073428;28;19919;-77
2023/03/29 14:20:53;;;;;;;;;;;;;;;;;;5073631;28;20013;-77
2023/03/29 14:23:57;;;;;;;;;;;;;;;;;;5073101;28;19923;-76
2023/03/29 14:27:00;;;;;;;;;;;;;;;;;;5073760;28;19919;-77
2023/03/29 14:30:03;;;;;;;;;;;;;;;;;;5073492;28;20064;-75
2023/03/29 14:33:07;;;;;;;;;;;;;;;;;;5073841;28;19958;-76
2023/03/29 14:36:10;;;;;;;;;;;;;;;;;;5073703;28;19922;-75
2023/03/29 14:39:13;;;;;;;;;;;;;;;;;;5073308;28;19924;-76
2023/03/29 14:42:16;;;;;;;;;;;;;;;;;;5073475;28;19923;-76
2023/03/29 14:45:19;;;;;;;;;;;;;;;;;;5073460;28;19924;-77
2023/03/29 14:48:22;;;;;;;;;;;;;;;;;;5073362;28;20394;-77
2023/03/29 14:51:29;;;;;;;;;;;;;;;;;;5073270;28;19919;-77
2023/03/29 14:54:33;;;;;;;;;;;;;;;;;;5073118;28;19928;-76
2023/03/29 14:57:36;;;;;;;;;;;;;;;;;;5072495;28;19919;-77
2023/03/29 15:00:41;;;;;;;;;;;;;;;;;;5068396;28;19921;-77
2023/03/29 15:03:46;;;;;;;;;;;;;;;;;;5072869;28;19923;-77
2023/03/29 15:06:51;;;;;;;;;;;;;;;;;;5083846;28;20265;-77
2023/03/29 15:09:55;;;;;;;;;;;;;;;;;;5072741;28;19962;-78
2023/03/29 15:13:03;;;;;;;;;;;;;;;;;;5071094;28;20015;-78
2023/03/29 15:16:06;;;;;;;;;;;;;;;;;;5071596;28;20391;-78
2023/03/29 15:19:09;;;;;;;;;;;;;;;;;;5072283;28;19920;-78
2023/03/29 15:22:15;;;;;;;;;;;;;;;;;;5070583;28;19969;-78
2023/03/29 15:25:20;;;;;;;;;;;;;;;;;;5071554;28;19980;-76
2023/03/29 15:28:26;;;;;;;;;;;;;;;;;;5071739;28;19919;-77
2023/03/29 15:31:30;;;;;;;;;;;;;;;;;;5071197;28;19939;-77
2023/03/29 15:34:34;;;;;;;;;;;;;;;;;;5071695;28;20046;-75
2023/03/29 15:37:40;;;;;;;;;;;;;;;;;;5072719;28;19920;-79
2023/03/29 15:40:43;;;;;;;;;;;;;;;;;;5072259;28;19970;-77
2023/03/29 15:43:48;;;;;;;;;;;;;;;;;;5072356;28;19923;-74
2023/03/29 15:46:51;;;;;;;;;;;;;;;;;;5071403;28;20292;-78
2023/03/29 15:49:54;;;;;;;;;;;;;;;;;;5072294;28;19970;-77
2023/03/29 15:52:58;;;;;;;;;;;;;;;;;;5070989;28;19920;-77
2023/03/29 15:56:02;;;;;;;;;;;;;;;;;;5072159;28;19974;-76
2023/03/29 15:59:06;;;;;;;;;;;;;;;;;;5072119;28;19955;-77
2023/03/29 16:02:14;;;;;;;;;;;;;;;;;;5072151;28;20523;-76
2023/03/29 16:05:17;;;;;;;;;;;;;;;;;;5075844;28;20335;-76
2023/03/29 16:08:20;;;;;;;;;;;;;;;;;;5075099;28;19919;-76
2023/03/29 16:11:25;;;;;;;;;;;;;;;;;;5074609;28;19923;-76
2023/03/29 16:14:31;;;;;;;;;;;;;;;;;;5076236;28;19919;-77
2023/03/29 16:17:35;;;;;;;;;;;;;;;;;;5075943;28;19920;-75
2023/03/29 16:20:40;;;;;;;;;;;;;;;;;;5075773;28;20296;-76
2023/03/29 16:23:44;;;;;;;;;;;;;;;;;;5075684;28;19945;-76
2023/03/29 16:26:48;;;;;;;;;;;;;;;;;;5075710;28;19978;-75
2023/03/29 16:29:51;;;;;;;;;;;;;;;;;;5075586;28;20390;-76
2023/03/29 16:32:55;;;;;;;;;;;;;;;;;;5075668;28;20007;-79
2023/03/29 16:35:58;;;;;;;;;;;;;;;;;;5075940;28;19962;-76
2023/03/29 16:39:01;;;;;;;;;;;;;;;;;;5075845;28;19965;-74
2023/03/29 16:42:05;;;;;;;;;;;;;;;;;;5075460;28;20001;-77
2023/03/29 16:45:08;;;;;;;;;;;;;;;;;;5073783;28;19958;-78
2023/03/29 16:48:10;;;;;;;;;;;;;;;;;;5074985;28;19920;-79
2023/03/29 16:51:13;;;;;;;;;;;;;;;;;;5074793;28;20395;-76
2023/03/29 16:54:17;;;;;;;;;;;;;;;;;;5074108;28;19973;-76
2023/03/29 16:57:25;;;;;;;;;;;;;;;;;;5074332;28;19958;-75
2023/03/29 17:00:28;;;;;;;;;;;;;;;;;;5074594;28;19959;-75
2023/03/29 17:03:32;;;;;;;;;;;;;;;;;;5074746;28;19946;-75
2023/03/29 17:06:35;;;;;;;;;;;;;;;;;;5074890;28;19920;-74
2023/03/29 17:09:39;;;;;;;;;;;;;;;;;;5074802;28;19966;-74
2023/03/29 17:12:42;;;;;;;;;;;;;;;;;;5074505;28;19966;-76
2023/03/29 17:15:46;;;;;;;;;;;;;;;;;;5074710;28;20461;-75
2023/03/29 17:18:49;;;;;;;;;;;;;;;;;;5073946;28;20319;-76
2023/03/29 17:21:53;;;;;;;;;;;;;;;;;;5074570;28;19982;-76
2023/03/29 17:24:56;;;;;;;;;;;;;;;;;;5074333;28;19919;-76
2023/03/29 17:27:59;;;;;;;;;;;;;;;;;;5074691;28;19922;-76
2023/03/29 17:31:02;;;;;;;;;;;;;;;;;;5072709;28;19920;-76
2023/03/29 17:34:05;;;;;;;;;;;;;;;;;;5072306;28;19919;-76
2023/03/29 17:37:10;;;;;;;;;;;;;;;;;;5072982;28;19951;-75
2023/03/29 17:40:13;;;;;;;;;;;;;;;;;;5085136;28;19919;-75
2023/03/29 17:43:16;;;;;;;;;;;;;;;;;;5074162;28;20025;-75
2023/03/29 17:46:21;;;;;;;;;;;;;;;;;;5074152;28;19970;-75
2023/03/29 17:49:24;;;;;;;;;;;;;;;;;;5074050;28;19994;-75
2023/03/29 17:52:26;;;;;;;;;;;;;;;;;;5074327;28;19919;-73
2023/03/29 17:55:30;;;;;;;;;;;;;;;;;;5073621;28;20536;-76
2023/03/29 17:58:34;;;;;;;;;;;;;;;;;;5074050;28;19918;-77
2023/03/29 18:01:37;;;;;;;;;;;;;;;;;;5072946;28;19942;-76
2023/03/29 18:04:41;;;;;;;;;;;;;;;;;;5072031;28;20399;-78
2023/03/29 18:07:47;;;;;;;;;;;;;;;;;;5069938;28;19923;-76
2023/03/29 18:10:53;;;;;;;;;;;;;;;;;;5070950;28;19918;-76
2023/03/29 18:13:56;;;;;;;;;;;;;;;;;;5071298;28;19922;-77
2023/03/29 18:16:59;;;;;;;;;;;;;;;;;;5071466;28;19966;-77
2023/03/29 18:20:10;;;;;;;;;;;;;;;;;;5068811;28;19950;-76
2023/03/29 18:23:12;;;;;;;;;;;;;;;;;;5071209;28;19923;-77
2023/03/29 18:26:15;;;;;;;;;;;;;;;;;;5072914;28;19974;-76
2023/03/29 18:29:19;;;;;;;;;;;;;;;;;;5060492;28;19918;-75
2023/03/29 18:32:24;;;;;;;;;;;;;;;;;;5071830;28;20287;-75
2023/03/29 18:35:27;;;;;;;;;;;;;;;;;;5072088;28;19919;-75
2023/03/29 18:38:34;;;;;;;;;;;;;;;;;;5071710;28;19919;-76
2023/03/29 18:41:37;;;;;;;;;;;;;;;;;;5071413;28;19919;-77
2023/03/29 18:44:39;;;;;;;;;;;;;;;;;;5072616;28;19953;-75
2023/03/29 18:47:42;;;;;;;;;;;;;;;;;;5070644;28;20391;-76
2023/03/29 18:50:45;;;;;;;;;;;;;;;;;;5070671;28;19918;-75
2023/03/29 18:53:50;;;;;;;;;;;;;;;;;;5072122;28;19966;-75
2023/03/29 18:56:53;;;;;;;;;;;;;;;;;;5072802;28;19979;-78
2023/03/29 18:59:56;;;;;;;;;;;;;;;;;;5083605;28;19966;-78
2023/03/29 19:02:59;;;;;;;;;;;;;;;;;;5069983;28;19970;-77
2023/03/29 19:06:02;;;;;;;;;;;;;;;;;;5070366;28;20288;-77
2023/03/29 19:09:05;;;;;;;;;;;;;;;;;;5070071;28;19966;-75
2023/03/29 19:12:08;;;;;;;;;;;;;;;;;;5069310;28;19958;-79
2023/03/29 19:15:11;;;;;;;;;;;;;;;;;;5070366;28;19920;-77
2023/03/29 19:18:14;;;;;;;;;;;;;;;;;;5070641;28;19920;-77
2023/03/29 19:21:18;;;;;;;;;;;;;;;;;;5071434;28;19919;-76
2023/03/29 19:24:22;;;;;;;;;;;;;;;;;;5069151;28;19924;-78
2023/03/29 19:27:25;;;;;;;;;;;;;;;;;;5069581;28;19919;-76
2023/03/29 19:30:28;;;;;;;;;;;;;;;;;;5072571;28;19981;-78
2023/03/29 19:33:31;;;;;;;;;;;;;;;;;;5072533;28;20314;-79
2023/03/29 19:36:34;;;;;;;;;;;;;;;;;;5072496;28;19924;-78
2023/03/29 19:39:39;;;;;;;;;;;;;;;;;;5071872;28;20284;-79
2023/03/29 19:42:42;;;;;;;;;;;;;;;;;;5070599;28;19924;-77
2023/03/29 19:45:45;;;;;;;;;;;;;;;;;;5071860;28;20337;-75
2023/03/29 19:48:50;;;;;;;;;;;;;;;;;;5072200;28;19965;-75
2023/03/29 19:51:54;;;;;;;;;;;;;;;;;;5069860;28;19965;-75
2023/03/29 19:54:58;;;;;;;;;;;;;;;;;;5072020;28;20434;-76
2023/03/29 19:58:01;;;;;;;;;;;;;;;;;;5072144;28;19965;-76
2023/03/29 20:01:04;;;;;;;;;;;;;;;;;;5071975;28;19931;-76
2023/03/29 20:04:07;;;;;;;;;;;;;;;;;;5052186;28;20438;-79
2023/03/29 20:07:10;;;;;;;;;;;;;;;;;;5052335;28;19920;-79
2023/03/29 20:10:13;;;;;;;;;;;;;;;;;;5052177;28;19992;-79
2023/03/29 20:13:16;;;;;;;;;;;;;;;;;;5061941;28;20286;-79
2023/03/29 20:16:23;;;;;;;;;;;;;;;;;;5069912;28;19927;-78
2023/03/29 20:19:26;;;;;;;;;;;;;;;;;;5070827;28;20030;-78
2023/03/29 20:22:31;;;;;;;;;;;;;;;;;;5068229;28;19972;-78
2023/03/29 20:25:35;;;;;;;;;;;;;;;;;;5069033;28;19920;-78
2023/03/29 20:28:40;;;;;;;;;;;;;;;;;;5069666;28;20383;-78
2023/03/29 20:31:43;;;;;;;;;;;;;;;;;;5070269;28;20406;-79
2023/03/29 20:34:46;;;;;;;;;;;;;;;;;;5070661;28;20002;-78
2023/03/29 20:37:49;;;;;;;;;;;;;;;;;;5068584;28;19934;-78
2023/03/29 20:40:52;;;;;;;;;;;;;;;;;;5068822;28;19924;-78
2023/03/29 20:43:58;;;;;;;;;;;;;;;;;;5068765;28;19923;-78
2023/03/29 20:47:02;;;;;;;;;;;;;;;;;;5069835;28;20427;-78
2023/03/29 20:50:07;;;;;;;;;;;;;;;;;;5071918;28;19919;-78
2023/03/29 20:53:10;;;;;;;;;;;;;;;;;;5071668;28;20276;-78
2023/03/29 20:56:13;;;;;;;;;;;;;;;;;;5072203;28;20307;-78
2023/03/29 20:59:16;;;;;;;;;;;;;;;;;;5071906;28;20402;-78
2023/03/29 21:02:19;;;;;;;;;;;;;;;;;;5072737;28;19928;-78
2023/03/29 21:05:23;;;;;;;;;;;;;;;;;;5073524;28;19958;-78
2023/03/29 21:08:27;;;;;;;;;;;;;;;;;;5073504;28;19939;-78